Time;durP1;ratioP1;P1;durP2;ratioP2;P2;SDS_P1;SDS_P2;PMS_P1;PMS_P2;Temp;Humidity;BMP_temperature;BMP_pressure;BME280_temperature;BME280_humidity;BME280_pressure;Samples;Min_cycle;Max_cycle;Signal;HPM_P1;HPM_P2
2021/04/16 00:00:46;;;;;;;6.13;5.63;;;5.90;99.90;;;;;;5005458;28;20491;-70
2021/04/16 00:03:13;;;;;;;7.10;5.57;;;5.90;99.90;;;;;;5004765;28;20511;-71
2021/04/16 00:05:39;;;;;;;5.30;4.83;;;5.80;99.90;;;;;;5003902;28;20799;-70
2021/04/16 00:08:15;;;;;;;7.23;5.57;;;5.80;99.90;;;;;;5001696;28;20526;-69
2021/04/16 00:10:44;;;;;;;7.07;5.10;;;5.80;99.90;;;;;;5001491;28;20930;-70
2021/04/16 00:13:13;;;;;;;5.40;5.00;;;5.80;99.90;;;;;;5005462;28;20440;-72
2021/04/16 00:15:40;;;;;;;5.20;4.70;;;5.80;99.90;;;;;;5010653;28;20462;-72
2021/04/16 00:18:09;;;;;;;5.57;5.07;;;5.70;99.90;;;;;;5006937;28;20450;-71
2021/04/16 00:20:35;;;;;;;5.90;5.40;;;5.60;99.90;;;;;;5008839;28;20432;-71
2021/04/16 00:23:02;;;;;;;6.40;5.73;;;5.50;99.90;;;;;;5008323;28;21197;-70
2021/04/16 00:25:30;;;;;;;6.30;5.67;;;5.50;99.90;;;;;;5008588;28;20483;-70
2021/04/16 00:27:57;;;;;;;8.67;5.13;;;5.50;99.90;;;;;;5010955;28;20432;-70
2021/04/16 00:30:50;;;;;;;6.47;5.40;;;5.50;99.90;;;;;;5011855;28;20619;-70
2021/04/16 00:33:16;;;;;;;5.27;4.83;;;5.50;99.90;;;;;;5006090;28;20436;-69
2021/04/16 00:35:42;;;;;;;9.03;6.10;;;5.50;99.90;;;;;;5004717;28;20448;-71
2021/04/16 00:38:09;;;;;;;6.07;5.47;;;5.60;99.90;;;;;;5008705;28;20506;-70
2021/04/16 00:40:42;;;;;;;7.00;5.10;;;5.60;99.90;;;;;;5006286;28;20191;-72
2021/04/16 00:43:09;;;;;;;6.37;5.20;;;5.60;99.90;;;;;;5005367;28;20428;-71
2021/04/16 00:45:36;;;;;;;5.43;4.93;;;5.60;99.90;;;;;;5009435;28;20471;-70
2021/04/16 00:48:07;;;;;;;6.30;4.60;;;5.60;99.90;;;;;;5012091;28;20423;-70
2021/04/16 00:50:58;;;;;;;5.53;4.90;;;5.60;99.90;;;;;;5005064;28;21038;-71
2021/04/16 00:53:25;;;;;;;5.40;4.90;;;5.50;99.90;;;;;;5005563;28;21247;-71
2021/04/16 00:55:51;;;;;;;4.80;4.17;;;5.60;99.90;;;;;;5011385;28;20454;-70
2021/04/16 00:58:19;;;;;;;4.70;4.30;;;5.50;99.90;;;;;;5009589;28;20435;-69
2021/04/16 01:00:48;;;;;;;6.90;4.50;;;5.50;99.90;;;;;;5005593;28;20577;-70
2021/04/16 01:03:14;;;;;;;4.43;4.07;;;5.50;99.90;;;;;;5006592;28;20478;-69
2021/04/16 01:05:39;;;;;;;4.40;4.10;;;5.50;99.90;;;;;;5007503;28;20501;-68
2021/04/16 01:08:06;;;;;;;5.90;4.80;;;5.40;99.90;;;;;;5005910;28;20268;-71
2021/04/16 01:10:32;;;;;;;4.90;4.50;;;5.50;99.90;;;;;;5003807;28;20657;-70
2021/04/16 01:12:57;;;;;;;4.90;4.50;;;5.50;99.90;;;;;;5004023;28;20432;-70
2021/04/16 01:15:29;;;;;;;4.87;4.47;;;5.50;99.90;;;;;;5008947;28;20508;-70
2021/04/16 01:17:59;;;;;;;5.33;4.10;;;5.40;99.90;;;;;;5006419;28;20177;-71
2021/04/16 01:20:29;;;;;;;4.10;3.70;;;5.40;99.90;;;;;;5007542;28;20515;-70
2021/04/16 01:23:01;;;;;;;4.90;4.40;;;5.50;99.90;;;;;;5007661;28;20478;-69
2021/04/16 01:25:28;;;;;;;4.67;4.03;;;5.50;99.90;;;;;;5005068;28;20463;-70
2021/04/16 01:27:54;;;;;;;5.87;4.77;;;5.40;99.90;;;;;;5005904;28;20985;-70
2021/04/16 01:30:24;;;;;;;4.20;3.80;;;5.50;99.90;;;;;;5007908;28;20424;-71
2021/04/16 01:32:51;;;;;;;4.53;4.13;;;5.40;99.90;;;;;;5002390;28;20181;-70
2021/04/16 01:35:26;;;;;;;4.30;3.90;;;5.40;99.90;;;;;;5001750;28;20474;-70
2021/04/16 01:37:52;;;;;;;4.60;4.20;;;5.40;99.90;;;;;;5004077;28;20553;-71
2021/04/16 01:40:18;;;;;;;3.63;3.43;;;5.40;99.90;;;;;;5007221;28;20953;-71
2021/04/16 01:42:44;;;;;;;4.60;4.20;;;5.30;99.90;;;;;;5004455;28;20288;-71
2021/04/16 01:45:29;;;;;;;4.27;3.90;;;5.30;99.90;;;;;;5000555;28;20559;-71
2021/04/16 01:47:57;;;;;;;4.37;3.97;;;5.30;99.90;;;;;;5005070;28;20177;-71
2021/04/16 01:50:24;;;;;;;7.83;4.50;;;5.20;99.90;;;;;;5004803;28;20527;-71
2021/04/16 01:52:50;;;;;;;5.63;3.90;;;5.30;99.90;;;;;;5011274;28;20514;-71
2021/04/16 01:55:16;;;;;;;4.27;3.93;;;5.20;99.90;;;;;;5010822;28;20555;-70
2021/04/16 01:57:44;;;;;;;4.83;4.37;;;5.20;99.90;;;;;;5012822;28;20428;-71
2021/04/16 02:00:21;;;;;;;4.80;4.40;;;5.20;99.90;;;;;;5006560;28;20424;-70
2021/04/16 02:02:47;;;;;;;5.70;4.27;;;5.10;99.90;;;;;;5010506;28;20466;-72
2021/04/16 02:05:13;;;;;;;5.40;4.20;;;5.10;99.90;;;;;;5012271;28;20606;-70
2021/04/16 02:07:39;;;;;;;4.67;4.23;;;5.10;99.90;;;;;;5007603;28;20666;-70
2021/04/16 02:10:07;;;;;;;4.47;4.07;;;5.20;99.90;;;;;;5008790;28;20431;-70
2021/04/16 02:12:33;;;;;;;24.40;5.30;;;5.10;99.90;;;;;;5006074;28;20216;-71
2021/04/16 02:14:59;;;;;;;5.20;4.70;;;5.10;99.90;;;;;;5008060;28;20487;-71
2021/04/16 02:17:27;;;;;;;4.73;4.33;;;5.10;99.90;;;;;;5006612;28;20225;-71
2021/04/16 02:19:55;;;;;;;5.40;4.33;;;5.20;99.90;;;;;;5005845;28;20532;-71
2021/04/16 02:22:24;;;;;;;4.30;4.00;;;5.10;99.90;;;;;;5012565;28;20436;-70
2021/04/16 02:24:50;;;;;;;4.30;3.90;;;5.10;99.90;;;;;;5007060;28;20474;-71
2021/04/16 02:27:19;;;;;;;4.90;4.40;;;5.20;99.90;;;;;;5006543;28;20428;-70
2021/04/16 02:29:45;;;;;;;6.40;4.23;;;5.20;99.90;;;;;;5009004;28;20181;-70
2021/04/16 02:32:11;;;;;;;4.50;4.10;;;5.10;99.90;;;;;;5008625;28;20485;-70
2021/04/16 02:34:37;;;;;;;7.07;4.57;;;5.10;99.90;;;;;;5004679;28;20467;-71
2021/04/16 02:37:08;;;;;;;4.90;4.43;;;5.10;99.90;;;;;;5006983;28;20439;-70
2021/04/16 02:39:34;;;;;;;5.10;4.43;;;5.10;99.90;;;;;;5005383;28;21205;-70
2021/04/16 02:42:00;;;;;;;4.67;4.27;;;5.10;99.90;;;;;;5011009;28;20514;-70
2021/04/16 02:44:26;;;;;;;4.90;4.37;;;5.00;99.90;;;;;;5001878;28;20475;-70
2021/04/16 02:46:53;;;;;;;5.23;4.23;;;5.00;99.90;;;;;;5010451;28;20432;-70
2021/04/16 02:49:19;;;;;;;7.60;4.60;;;5.00;99.90;;;;;;5006266;28;20794;-70
2021/04/16 02:51:45;;;;;;;7.63;4.50;;;4.90;99.90;;;;;;5006284;28;20456;-71
2021/04/16 02:54:11;;;;;;;5.87;5.13;;;4.90;99.90;;;;;;5007646;28;20490;-70
2021/04/16 02:56:36;;;;;;;6.07;4.60;;;4.90;99.90;;;;;;4989002;28;20362;-70
2021/04/16 02:59:03;;;;;;;6.53;4.77;;;4.90;99.90;;;;;;5005671;28;20894;-72
2021/04/16 03:01:29;;;;;;;6.23;4.90;;;4.80;99.90;;;;;;5018206;28;20193;-71
2021/04/16 03:03:55;;;;;;;5.83;5.30;;;4.80;99.90;;;;;;5004941;28;20432;-72
2021/04/16 03:06:21;;;;;;;5.30;4.37;;;4.80;99.90;;;;;;5004580;28;20503;-70
2021/04/16 03:08:55;;;;;;;4.60;4.20;;;4.80;99.90;;;;;;5003420;28;20432;-70
2021/04/16 03:11:21;;;;;;;5.70;4.63;;;4.90;99.90;;;;;;5008042;28;20541;-71
2021/04/16 03:13:47;;;;;;;4.87;4.40;;;4.80;99.90;;;;;;5002842;28;20503;-72
2021/04/16 03:16:13;;;;;;;6.50;5.20;;;4.80;99.90;;;;;;5005055;28;20966;-71
2021/04/16 03:18:39;;;;;;;5.37;4.87;;;4.70;99.90;;;;;;5004887;28;20608;-71
2021/04/16 03:21:06;;;;;;;6.93;5.60;;;4.70;99.90;;;;;;5004057;28;20447;-69
2021/04/16 03:23:31;;;;;;;7.20;5.73;;;4.60;99.90;;;;;;5003876;28;20192;-72
2021/04/16 03:25:57;;;;;;;8.10;5.93;;;4.50;99.90;;;;;;5004959;28;20562;-70
2021/04/16 03:28:23;;;;;;;7.20;5.87;;;4.40;99.90;;;;;;5007418;28;20223;-72
2021/04/16 03:30:50;;;;;;;5.50;5.00;;;4.40;99.90;;;;;;5002744;28;20194;-70
2021/04/16 03:33:16;;;;;;;6.30;5.70;;;4.40;99.90;;;;;;5002646;28;20204;-69
2021/04/16 03:35:41;;;;;;;7.00;5.70;;;4.40;99.90;;;;;;5005738;28;20457;-70
2021/04/16 03:38:07;;;;;;;6.13;5.53;;;4.30;99.90;;;;;;5005599;28;20251;-71
2021/04/16 03:40:33;;;;;;;8.30;5.77;;;4.30;99.90;;;;;;5005238;28;20185;-71
2021/04/16 03:42:59;;;;;;;6.90;5.23;;;4.30;99.90;;;;;;5007461;28;20256;-70
2021/04/16 03:45:25;;;;;;;7.63;6.30;;;4.30;99.90;;;;;;5001669;28;20599;-70
2021/04/16 03:47:51;;;;;;;7.80;6.10;;;4.20;99.90;;;;;;5001874;28;20435;-71
2021/04/16 03:50:21;;;;;;;6.53;5.83;;;4.20;99.90;;;;;;5001101;28;20428;-69
2021/04/16 03:52:47;;;;;;;6.50;5.90;;;4.20;99.90;;;;;;5000455;28;21135;-70
2021/04/16 03:55:15;;;;;;;7.00;5.90;;;4.10;99.90;;;;;;5004532;28;20466;-70
2021/04/16 03:57:41;;;;;;;7.60;5.70;;;4.00;99.90;;;;;;5000508;28;20442;-71
2021/04/16 04:00:09;;;;;;;9.17;5.87;;;4.00;99.90;;;;;;4999822;28;20437;-71
2021/04/16 04:02:35;;;;;;;7.20;5.63;;;3.90;99.90;;;;;;5002848;28;20683;-69
2021/04/16 04:05:01;;;;;;;6.80;6.07;;;3.90;99.90;;;;;;5002600;28;20482;-70
2021/04/16 04:07:27;;;;;;;8.33;6.23;;;3.80;99.90;;;;;;5002452;28;20428;-69
2021/04/16 04:09:52;;;;;;;6.50;5.73;;;3.80;99.90;;;;;;5001585;28;20239;-69
2021/04/16 04:12:18;;;;;;;8.27;5.80;;;3.80;99.90;;;;;;5006444;28;20187;-71
2021/04/16 04:14:43;;;;;;;7.70;6.03;;;3.80;99.90;;;;;;4982239;28;589851;-70
2021/04/16 04:17:20;;;;;;;6.73;5.70;;;3.80;99.90;;;;;;5023592;28;20196;-71
2021/04/16 04:19:46;;;;;;;7.90;6.27;;;3.90;99.90;;;;;;5002729;28;20208;-69
2021/04/16 04:22:12;;;;;;;7.50;6.07;;;3.80;99.90;;;;;;5005427;28;20536;-71
2021/04/16 04:24:37;;;;;;;7.60;5.33;;;3.80;99.90;;;;;;4998077;28;20783;-70
2021/04/16 04:27:03;;;;;;;7.40;5.87;;;3.80;99.90;;;;;;5004981;28;20898;-69
2021/04/16 04:29:29;;;;;;;6.40;5.80;;;3.80;99.90;;;;;;5001660;28;20189;-70
2021/04/16 04:31:54;;;;;;;7.10;6.37;;;3.80;99.90;;;;;;5002974;28;20443;-71
2021/04/16 04:34:25;;;;;;;8.50;6.00;;;3.80;99.90;;;;;;4999485;28;20712;-70
2021/04/16 04:36:54;;;;;;;6.17;5.30;;;3.80;99.90;;;;;;5006724;28;20299;-70
2021/04/16 04:39:21;;;;;;;6.03;5.47;;;3.70;99.90;;;;;;5001612;28;20451;-70
2021/04/16 04:41:47;;;;;;;8.63;6.87;;;3.70;99.90;;;;;;4999544;28;20538;-69
2021/04/16 04:44:14;;;;;;;9.87;6.07;;;3.60;99.90;;;;;;5000186;28;20432;-70
2021/04/16 04:46:40;;;;;;;7.30;6.60;;;3.50;99.90;;;;;;5001534;28;20538;-70
2021/04/16 04:49:07;;;;;;;6.20;5.60;;;3.50;99.90;;;;;;5004483;28;20436;-69
2021/04/16 04:51:34;;;;;;;9.23;6.97;;;3.50;99.90;;;;;;5000989;28;20485;-70
2021/04/16 04:54:00;;;;;;;6.50;5.77;;;3.50;99.90;;;;;;4999612;28;20470;-71
2021/04/16 04:56:25;;;;;;;6.70;6.00;;;3.50;99.90;;;;;;4997778;28;20463;-69
2021/04/16 04:58:52;;;;;;;7.17;5.60;;;3.50;99.90;;;;;;5005661;28;21004;-70
2021/04/16 05:01:18;;;;;;;7.03;6.33;;;3.50;99.90;;;;;;5002497;28;20199;-70
2021/04/16 05:03:43;;;;;;;6.50;5.80;;;3.60;99.90;;;;;;5002730;28;20531;-71
2021/04/16 05:06:09;;;;;;;7.30;5.63;;;3.60;99.90;;;;;;5001785;28;20219;-71
2021/04/16 05:08:34;;;;;;;7.20;5.70;;;3.70;99.90;;;;;;5001665;28;20183;-70
2021/04/16 05:11:01;;;;;;;7.60;5.97;;;3.80;99.90;;;;;;5005805;28;20230;-69
2021/04/16 05:13:28;;;;;;;8.73;5.63;;;3.90;99.90;;;;;;5003060;28;20185;-70
2021/04/16 05:15:53;;;;;;;6.20;5.57;;;4.00;99.90;;;;;;5003214;28;20468;-71
2021/04/16 05:18:19;;;;;;;7.50;4.93;;;4.00;99.90;;;;;;5002746;28;20454;-71
2021/04/16 05:20:45;;;;;;;5.77;5.23;;;4.20;99.90;;;;;;5003273;28;20209;-69
2021/04/16 05:23:11;;;;;;;6.67;5.63;;;4.30;99.90;;;;;;5006555;28;20189;-71
2021/04/16 05:25:36;;;;;;;6.77;5.70;;;4.30;99.90;;;;;;5006966;28;20508;-70
2021/04/16 05:28:02;;;;;;;7.33;6.20;;;4.40;99.90;;;;;;5008012;28;20217;-70
2021/04/16 05:30:28;;;;;;;6.40;5.10;;;4.40;99.90;;;;;;5006854;28;20271;-71
2021/04/16 05:32:53;;;;;;;12.40;6.00;;;4.50;99.90;;;;;;5008835;28;20228;-70
2021/04/16 05:35:19;;;;;;;5.50;4.90;;;4.50;99.90;;;;;;5006348;28;20254;-71
2021/04/16 05:37:45;;;;;;;9.50;5.97;;;4.60;99.90;;;;;;5008413;28;20196;-71
2021/04/16 05:40:11;;;;;;;8.07;5.40;;;4.60;99.90;;;;;;5011988;28;20436;-70
2021/04/16 05:42:37;;;;;;;7.37;5.20;;;4.60;99.90;;;;;;5010377;28;20181;-71
2021/04/16 05:45:04;;;;;;;10.67;5.87;;;4.70;99.90;;;;;;5012852;28;20468;-71
2021/04/16 05:47:31;;;;;;;5.83;5.23;;;4.70;99.90;;;;;;5009862;28;20591;-71
2021/04/16 05:49:57;;;;;;;8.97;5.63;;;4.80;99.90;;;;;;5014412;28;20460;-69
2021/04/16 05:52:22;;;;;;;5.50;4.97;;;4.80;99.90;;;;;;5012961;28;20988;-70
2021/04/16 05:54:48;;;;;;;5.53;5.03;;;4.80;99.90;;;;;;5015995;28;20458;-72
2021/04/16 05:57:14;;;;;;;6.23;5.63;;;4.80;99.90;;;;;;5014664;28;20274;-70
2021/04/16 05:59:40;;;;;;;6.67;5.80;;;4.90;99.90;;;;;;5009427;28;20185;-70
2021/04/16 06:02:28;;;;;;;6.93;5.43;;;4.90;99.90;;;;;;5014339;28;20503;-70
2021/04/16 06:04:54;;;;;;;7.57;5.93;;;4.90;99.90;;;;;;5010380;28;20836;-70
2021/04/16 06:07:21;;;;;;;9.43;6.20;;;5.00;99.90;;;;;;5011294;28;20526;-69
2021/04/16 06:09:47;;;;;;;6.90;5.17;;;5.00;99.90;;;;;;5006295;28;21128;-72
2021/04/16 06:12:13;;;;;;;5.73;5.23;;;5.00;99.90;;;;;;5007924;28;20442;-71
2021/04/16 06:14:42;;;;;;;8.50;5.83;;;5.00;99.90;;;;;;5009167;28;20459;-70
2021/04/16 06:17:09;;;;;;;6.37;5.77;;;5.00;99.90;;;;;;5004601;28;20193;-70
2021/04/16 06:19:34;;;;;;;11.67;6.90;;;5.10;99.90;;;;;;5011201;28;20436;-70
2021/04/16 06:22:00;;;;;;;11.47;5.83;;;5.10;99.90;;;;;;5007728;28;20441;-71
2021/04/16 06:24:26;;;;;;;7.93;6.70;;;5.10;99.90;;;;;;5011245;28;20604;-70
2021/04/16 06:26:51;;;;;;;7.80;5.67;;;5.20;99.90;;;;;;5003990;28;20275;-70
2021/04/16 06:29:17;;;;;;;8.30;5.67;;;5.20;99.90;;;;;;5009887;28;20678;-70
2021/04/16 06:31:42;;;;;;;8.23;5.50;;;5.30;99.90;;;;;;5010959;28;20197;-71
2021/04/16 06:34:08;;;;;;;10.13;5.67;;;5.30;99.90;;;;;;5001410;28;20191;-71
2021/04/16 06:36:34;;;;;;;8.40;5.33;;;5.40;99.90;;;;;;5007534;28;20197;-71
2021/04/16 06:39:00;;;;;;;5.00;4.50;;;5.50;99.90;;;;;;5005339;28;20185;-72
2021/04/16 06:41:31;;;;;;;7.90;5.90;;;5.40;99.90;;;;;;5005983;28;20193;-71
2021/04/16 06:44:06;;;;;;;9.17;5.97;;;5.50;99.90;;;;;;5010132;28;20455;-70
2021/04/16 06:46:42;;;;;;;6.53;5.50;;;5.60;99.90;;;;;;5009897;28;22154;-70
2021/04/16 06:49:12;;;;;;;11.23;6.50;;;5.60;99.90;;;;;;5008313;28;21066;-72
2021/04/16 06:52:02;;;;;;;7.17;6.47;;;5.70;99.90;;;;;;5004870;28;20547;-72
2021/04/16 06:54:46;;;;;;;7.77;5.73;;;5.70;99.90;;;;;;5005471;28;20448;-70
2021/04/16 06:57:21;;;;;;;5.90;5.37;;;5.80;99.90;;;;;;5006897;28;20439;-69
2021/04/16 07:02:35;;;;;;;18.23;5.87;;;6.00;99.90;;;;;;5043324;28;20601;-71
2021/04/16 07:05:03;;;;;;;6.93;5.23;;;6.10;99.90;;;;;;5034450;28;20487;-70
2021/04/16 07:07:30;;;;;;;6.47;5.40;;;6.00;99.90;;;;;;5025766;28;20477;-68
2021/04/16 07:10:15;;;;;;;9.97;5.70;;;6.00;99.90;;;;;;5027845;28;20441;-70
2021/04/16 07:12:42;;;;;;;5.90;5.30;;;6.10;99.90;;;;;;5028779;28;20458;-69
2021/04/16 07:15:13;;;;;;;8.40;5.97;;;6.00;99.90;;;;;;5031004;28;20493;-70
2021/04/16 07:17:41;;;;;;;7.17;6.33;;;6.10;99.90;;;;;;5029351;28;20446;-70
2021/04/16 07:20:09;;;;;;;6.03;5.43;;;6.20;99.90;;;;;;5035157;28;20435;-69
2021/04/16 07:22:43;;;;;;;7.23;5.87;;;6.40;99.90;;;;;;5036456;28;21148;-71
2021/04/16 07:25:45;;;;;;;7.33;6.27;;;6.50;99.90;;;;;;5029000;28;20454;-69
2021/04/16 07:28:50;;;;;;;5.90;5.20;;;6.50;99.90;;;;;;5028710;28;20414;-71
2021/04/16 07:31:28;;;;;;;6.07;5.50;;;6.60;99.90;;;;;;5026711;28;20447;-71
2021/04/16 07:33:55;;;;;;;5.80;5.27;;;6.60;99.90;;;;;;5030823;28;20443;-69
2021/04/16 07:36:27;;;;;;;5.47;5.00;;;6.60;99.90;;;;;;5032988;28;20582;-71
2021/04/16 07:39:14;;;;;;;6.43;5.80;;;6.60;99.90;;;;;;5027089;28;20431;-70
2021/04/16 07:41:44;;;;;;;6.70;5.77;;;6.60;99.90;;;;;;5029321;28;20873;-70
2021/04/16 07:44:34;;;;;;;11.90;6.00;;;6.70;99.90;;;;;;5025706;28;20456;-70
2021/04/16 07:47:02;;;;;;;6.63;5.90;;;6.70;99.90;;;;;;5032097;28;20426;-70
2021/04/16 07:49:51;;;;;;;6.23;5.53;;;6.80;99.90;;;;;;5028969;28;20414;-70
2021/04/16 07:52:19;;;;;;;6.60;6.00;;;6.80;99.90;;;;;;5033460;28;20917;-71
2021/04/16 07:55:20;;;;;;;6.47;5.80;;;6.90;99.90;;;;;;5029670;28;20443;-69
2021/04/16 07:57:59;;;;;;;6.60;5.60;;;7.00;99.90;;;;;;5031799;28;20462;-69
2021/04/16 08:00:35;;;;;;;8.33;6.10;;;7.00;99.90;;;;;;5026805;28;20887;-71
2021/04/16 08:03:07;;;;;;;6.40;5.80;;;7.10;99.90;;;;;;5036152;28;20440;-68
2021/04/16 08:05:41;;;;;;;9.70;5.83;;;7.10;99.90;;;;;;5031988;28;20446;-70
2021/04/16 08:08:22;;;;;;;6.80;6.10;;;7.10;99.90;;;;;;5033339;28;20761;-70
2021/04/16 08:10:52;;;;;;;6.40;5.80;;;7.20;99.90;;;;;;5008341;28;20465;-71
2021/04/16 08:13:22;;;;;;;6.90;5.60;;;7.30;99.90;;;;;;5021242;28;20430;-68
2021/04/16 08:15:48;;;;;;;6.00;5.40;;;7.40;99.90;;;;;;5018395;28;20443;-70
2021/04/16 08:18:27;;;;;;;6.00;5.50;;;7.50;99.90;;;;;;5018111;28;20440;-69
2021/04/16 08:21:17;;;;;;;6.80;6.13;;;7.70;99.90;;;;;;4994789;28;21031;-69
2021/04/16 08:24:24;;;;;;;6.33;5.73;;;7.70;99.90;;;;;;5019638;28;20440;-70
2021/04/16 08:27:22;;;;;;;6.60;5.83;;;7.80;99.90;;;;;;5019682;28;20439;-70
2021/04/16 08:29:55;;;;;;;5.57;5.10;;;8.00;99.90;;;;;;5013700;28;20458;-69
2021/04/16 08:32:56;;;;;;;6.57;5.63;;;8.20;99.90;;;;;;5013201;28;20487;-69
2021/04/16 08:35:44;;;;;;;6.23;5.53;;;8.30;99.90;;;;;;5035900;28;21009;-69
2021/04/16 08:38:15;;;;;;;7.53;6.00;;;8.30;99.90;;;;;;5015631;28;20550;-69
2021/04/16 08:40:47;;;;;;;6.20;5.70;;;8.30;99.90;;;;;;5014837;28;20531;-71
2021/04/16 08:43:36;;;;;;;12.90;6.53;;;8.40;99.90;;;;;;5016460;28;20414;-69
2021/04/16 08:46:29;;;;;;;6.10;5.50;;;8.50;99.90;;;;;;5014520;28;20478;-69
2021/04/16 08:48:58;;;;;;;5.97;5.37;;;8.70;99.90;;;;;;5016940;28;20926;-70
2021/04/16 08:51:28;;;;;;;6.63;6.03;;;8.90;99.90;;;;;;5019642;28;20450;-71
2021/04/16 08:54:06;;;;;;;7.53;6.30;;;9.00;99.90;;;;;;5016298;28;20423;-70
2021/04/16 08:56:46;;;;;;;7.43;5.43;;;9.00;99.90;;;;;;5010073;28;20526;-70
2021/04/16 08:59:16;;;;;;;6.50;5.97;;;9.10;99.90;;;;;;5013287;28;20465;-71
2021/04/16 09:02:04;;;;;;;7.23;5.80;;;9.30;99.90;;;;;;5012142;28;20499;-71
2021/04/16 09:04:32;;;;;;;6.37;5.70;;;9.70;99.90;;;;;;5012752;28;20575;-72
2021/04/16 09:07:02;;;;;;;6.10;5.60;;;10.30;99.90;;;;;;5014125;28;20436;-70
2021/04/16 09:09:47;;;;;;;6.07;5.47;;;11.00;99.90;;;;;;5016196;28;20843;-70
2021/04/16 09:12:37;;;;;;;7.00;5.83;;;11.60;99.90;;;;;;5015502;28;20454;-71
2021/04/16 09:15:04;;;;;;;5.93;5.33;;;12.10;99.90;;;;;;5013734;28;20509;-70
2021/04/16 09:17:59;;;;;;;6.37;5.87;;;12.80;99.90;;;;;;5011428;28;20834;-72
2021/04/16 09:20:33;;;;;;;5.90;5.37;;;13.00;97.40;;;;;;5011769;28;20467;-70
2021/04/16 09:23:03;;;;;;;7.00;6.30;;;12.90;94.90;;;;;;5014343;28;20538;-70
2021/04/16 09:25:32;;;;;;;6.23;5.63;;;13.00;92.90;;;;;;5010621;28;20440;-69
2021/04/16 09:28:22;;;;;;;6.63;6.13;;;12.60;93.50;;;;;;5004368;28;20546;-68
2021/04/16 09:31:22;;;;;;;6.63;6.00;;;12.10;93.20;;;;;;5004596;28;20802;-68
2021/04/16 09:33:49;;;;;;;7.90;6.40;;;11.60;92.60;;;;;;5007210;28;20431;-69
2021/04/16 09:36:27;;;;;;;7.20;6.50;;;11.20;92.70;;;;;;5011514;28;20474;-68
2021/04/16 09:38:52;;;;;;;8.53;6.00;;;10.80;92.60;;;;;;5009049;28;21006;-68
2021/04/16 09:41:18;;;;;;;7.50;6.80;;;10.60;93.10;;;;;;5012438;28;20464;-70
2021/04/16 09:43:56;;;;;;;21.63;7.07;;;10.60;93.90;;;;;;5009109;28;20185;-69
2021/04/16 09:46:30;;;;;;;9.33;6.33;;;10.60;94.60;;;;;;5013404;28;21017;-69
2021/04/16 09:49:02;;;;;;;6.67;5.97;;;10.40;93.80;;;;;;5006587;28;20992;-69
2021/04/16 09:51:33;;;;;;;6.47;5.87;;;10.20;93.90;;;;;;5013642;28;20921;-69
2021/04/16 09:54:22;;;;;;;6.90;5.20;;;10.10;94.40;;;;;;4999794;28;20491;-70
2021/04/16 09:57:03;;;;;;;5.70;5.20;;;9.90;95.50;;;;;;5006910;28;20426;-69
2021/04/16 09:59:37;;;;;;;5.60;5.20;;;9.80;96.00;;;;;;5011059;28;20435;-71
2021/04/16 10:05:04;;;;;;;7.80;5.70;;;9.70;96.20;;;;;;5011717;28;20458;-70
2021/04/16 10:07:49;;;;;;;6.47;5.63;;;9.40;96.10;;;;;;5007221;28;20945;-70
2021/04/16 10:10:22;;;;;;;7.07;6.37;;;9.30;96.60;;;;;;5009240;28;20428;-68
2021/04/16 10:12:47;;;;;;;8.30;6.43;;;9.20;97.20;;;;;;5002131;28;20557;-70
2021/04/16 10:15:25;;;;;;;8.30;7.50;;;9.20;97.60;;;;;;5012409;28;20597;-70
2021/04/16 10:18:01;;;;;;;7.83;7.13;;;9.10;97.60;;;;;;5010397;28;20717;-69
2021/04/16 10:20:30;;;;;;;7.00;6.37;;;9.10;97.80;;;;;;5009920;28;20510;-71
2021/04/16 10:23:13;;;;;;;5.80;5.13;;;9.10;97.70;;;;;;5007513;28;21001;-71
2021/04/16 11:16:54;;;;;;;6.60;6.00;;;9.70;95.80;;;;;;5010136;28;20446;-71
2021/04/16 11:33:42;;;;;;;7.33;6.10;;;9.50;95.40;;;;;;5005242;28;20539;-68
2021/04/16 12:41:24;;;;;;;4.70;4.30;;;10.90;84.00;;;;;;5009388;28;20498;-70
2021/04/16 12:43:52;;;;;;;4.20;3.90;;;10.90;84.30;;;;;;5014248;28;20828;-70
2021/04/16 12:46:21;;;;;;;4.27;3.97;;;10.70;83.40;;;;;;5013189;28;20467;-70
2021/04/16 12:48:47;;;;;;;4.53;4.20;;;10.50;83.00;;;;;;5015294;28;20477;-71
2021/04/16 12:51:13;;;;;;;4.90;4.53;;;10.30;83.30;;;;;;5019946;28;20411;-70
2021/04/16 12:53:39;;;;;;;4.67;4.27;;;10.20;82.40;;;;;;5013281;28;20188;-69
2021/04/16 12:56:08;;;;;;;4.33;4.03;;;10.10;82.40;;;;;;5013563;28;20471;-70
2021/04/16 12:58:40;;;;;;;4.67;4.17;;;10.20;82.90;;;;;;5013707;28;20533;-70
2021/04/16 13:01:11;;;;;;;4.60;4.20;;;10.20;83.10;;;;;;5013613;28;20493;-70
2021/04/16 13:03:40;;;;;;;4.33;3.93;;;10.30;83.70;;;;;;5003773;28;20433;-69
2021/04/16 13:06:18;;;;;;;4.70;4.23;;;10.30;83.30;;;;;;5007295;28;20459;-71
2021/04/16 13:08:44;;;;;;;10.43;3.90;;;10.30;82.70;;;;;;5011273;28;20438;-71
2021/04/16 13:11:11;;;;;;;3.80;3.60;;;10.30;82.10;;;;;;5010620;28;20490;-69
2021/04/16 13:13:36;;;;;;;4.10;3.80;;;10.30;82.00;;;;;;5012665;28;20244;-70
2021/04/16 13:16:02;;;;;;;4.47;4.07;;;10.30;81.90;;;;;;5015675;28;20463;-69
2021/04/16 13:18:42;;;;;;;4.40;4.10;;;10.30;82.40;;;;;;5012594;28;20193;-68
2021/04/16 13:21:16;;;;;;;4.27;3.87;;;10.40;82.50;;;;;;5017636;28;20618;-69
2021/04/16 13:23:42;;;;;;;4.13;3.80;;;10.50;82.00;;;;;;5014690;28;20416;-69
2021/04/16 13:26:07;;;;;;;4.33;3.93;;;10.60;82.10;;;;;;5015288;28;20509;-71
2021/04/16 13:28:33;;;;;;;4.33;4.03;;;10.50;80.40;;;;;;5016586;28;20788;-70
2021/04/16 13:30:59;;;;;;;4.20;3.90;;;10.40;80.00;;;;;;5016619;28;20295;-69
2021/04/16 13:33:26;;;;;;;4.47;4.10;;;10.40;80.50;;;;;;5015226;28;20206;-69
2021/04/16 13:35:54;;;;;;;4.50;4.10;;;10.50;81.00;;;;;;5005784;28;20532;-70
2021/04/16 13:38:27;;;;;;;4.23;3.93;;;10.40;80.40;;;;;;5015600;28;20466;-70
2021/04/16 13:40:54;;;;;;;4.03;3.73;;;10.40;80.10;;;;;;5015087;28;20577;-72
2021/04/16 13:43:20;;;;;;;4.90;4.40;;;10.20;80.00;;;;;;5019921;28;20418;-70
2021/04/16 13:45:46;;;;;;;5.30;4.30;;;10.30;80.40;;;;;;5014614;28;20976;-70
2021/04/16 13:48:13;;;;;;;5.10;3.83;;;10.30;80.00;;;;;;5017259;28;20431;-68
2021/04/16 13:50:39;;;;;;;4.00;3.70;;;10.40;79.80;;;;;;5014732;28;20221;-71
2021/04/16 13:53:05;;;;;;;4.17;3.87;;;10.40;79.20;;;;;;5017728;28;20440;-71
2021/04/16 13:55:32;;;;;;;3.63;3.40;;;10.40;78.70;;;;;;5016797;28;20481;-72
2021/04/16 13:57:58;;;;;;;4.63;4.23;;;10.30;78.10;;;;;;5012853;28;20439;-70
2021/04/16 14:00:26;;;;;;;4.40;4.00;;;10.40;78.80;;;;;;5006618;28;20467;-71
2021/04/16 14:03:22;;;;;;;4.13;3.83;;;10.30;78.90;;;;;;5013485;28;20435;-70
2021/04/16 14:05:50;;;;;;;4.30;4.00;;;10.40;78.90;;;;;;5015906;28;20444;-71
2021/04/16 14:08:39;;;;;;;13.53;3.73;;;10.30;79.20;;;;;;5020257;28;20469;-72
2021/04/16 14:11:06;;;;;;;4.10;3.80;;;10.10;79.20;;;;;;5015411;28;21154;-69
2021/04/16 14:13:33;;;;;;;4.07;3.77;;;10.00;79.30;;;;;;5014448;28;20982;-70
2021/04/16 14:16:08;;;;;;;3.43;3.20;;;10.10;79.30;;;;;;5015259;28;20436;-70
2021/04/16 14:18:38;;;;;;;3.80;3.50;;;10.20;79.80;;;;;;5012949;28;20442;-69
2021/04/16 14:21:11;;;;;;;4.07;3.77;;;10.20;80.10;;;;;;5005470;28;20491;-70
2021/04/16 14:23:36;;;;;;;4.27;3.87;;;10.20;79.50;;;;;;5017459;28;20930;-71
2021/04/16 14:26:04;;;;;;;8.03;3.87;;;10.20;80.00;;;;;;5020309;28;20458;-70
2021/04/16 14:28:29;;;;;;;4.07;3.87;;;10.20;80.40;;;;;;5013839;28;20185;-69
2021/04/16 14:30:55;;;;;;;4.53;4.23;;;10.20;80.80;;;;;;5015911;28;20415;-71
2021/04/16 14:33:34;;;;;;;3.90;3.63;;;10.20;81.00;;;;;;5013434;28;20199;-71
2021/04/16 14:36:00;;;;;;;4.17;3.77;;;10.10;80.40;;;;;;5016412;28;20482;-70
2021/04/16 14:38:28;;;;;;;3.67;3.37;;;10.10;79.90;;;;;;5003330;28;20429;-72
2021/04/16 14:40:54;;;;;;;4.27;3.97;;;10.00;80.40;;;;;;5015366;28;21183;-70
2021/04/16 14:43:21;;;;;;;4.03;3.70;;;10.10;80.50;;;;;;5021130;28;20427;-71
2021/04/16 14:45:49;;;;;;;3.70;3.40;;;10.00;79.70;;;;;;5012492;28;20851;-71
2021/04/16 14:48:16;;;;;;;3.97;3.67;;;9.90;80.30;;;;;;5014083;28;20424;-71
2021/04/16 14:50:42;;;;;;;3.80;3.50;;;9.90;81.10;;;;;;5013953;28;20548;-70
2021/04/16 14:53:42;;;;;;;3.60;3.30;;;9.80;81.70;;;;;;5015969;28;20493;-71
2021/04/16 14:56:11;;;;;;;4.00;3.70;;;9.60;82.00;;;;;;5012513;28;20451;-70
2021/04/16 14:58:40;;;;;;;3.53;3.30;;;9.70;82.70;;;;;;5008917;28;20930;-72
2021/04/16 15:01:07;;;;;;;4.30;4.00;;;9.50;82.80;;;;;;5012556;28;20542;-70
2021/04/16 15:03:34;;;;;;;3.93;3.63;;;9.40;84.50;;;;;;5014748;28;20420;-69
2021/04/16 15:06:05;;;;;;;3.83;3.53;;;9.40;84.50;;;;;;5014882;28;20544;-70
2021/04/16 15:08:40;;;;;;;3.80;3.50;;;9.30;85.20;;;;;;5011773;28;20463;-70
2021/04/16 15:11:09;;;;;;;4.23;3.90;;;9.30;86.10;;;;;;5011777;28;20438;-68
2021/04/16 15:13:36;;;;;;;3.63;3.40;;;9.20;86.70;;;;;;5012309;28;20519;-70
2021/04/16 15:16:05;;;;;;;3.93;3.33;;;9.30;87.20;;;;;;5012551;28;20499;-71
2021/04/16 15:18:36;;;;;;;4.03;3.73;;;9.30;87.70;;;;;;5017413;28;20484;-71
2021/04/16 15:21:06;;;;;;;3.77;3.47;;;9.30;88.30;;;;;;5013206;28;20502;-70
2021/04/16 15:23:31;;;;;;;4.00;3.70;;;9.30;88.90;;;;;;5017148;28;20514;-70
2021/04/16 15:26:00;;;;;;;4.40;4.10;;;9.30;89.40;;;;;;5016639;28;20555;-72
2021/04/16 15:28:36;;;;;;;3.40;3.20;;;9.30;89.50;;;;;;5012398;28;20180;-71